createdAt,value
2023-02-08T00:00:46.416Z,69.80
2023-02-08T00:03:31.980Z,70.02
2023-02-08T00:06:18.219Z,69.72
2023-02-08T00:09:03.830Z,69.46
2023-02-08T00:11:49.562Z,68.67
2023-02-08T00:14:34.860Z,68.98
2023-02-08T00:17:20.543Z,68.61
2023-02-08T00:20:06.894Z,67.80
2023-02-08T00:22:53.428Z,68.32
2023-02-08T00:25:40.550Z,67.68
2023-02-08T00:28:26.886Z,67.34
2023-02-08T00:31:12.440Z,67.28
2023-02-08T00:34:00.003Z,66.94
2023-02-08T00:36:45.488Z,67.19
2023-02-08T00:39:31.797Z,66.96
2023-02-08T00:42:17.117Z,67.74
2023-02-08T00:45:02.382Z,67.23
2023-02-08T00:47:47.939Z,67.97
2023-02-08T00:50:33.249Z,67.42
2023-02-08T00:53:18.769Z,67.33
2023-02-08T00:56:04.712Z,66.82
2023-02-08T00:58:51.123Z,66.31
2023-02-08T01:01:37.385Z,66.00
2023-02-08T01:04:23.073Z,65.64
2023-02-08T01:07:08.866Z,66.09
2023-02-08T01:09:56.740Z,64.94
2023-02-08T01:12:42.617Z,64.75
2023-02-08T01:15:28.588Z,64.56
2023-02-08T01:18:14.275Z,64.60
2023-02-08T01:21:06.077Z,64.78
2023-02-08T01:23:51.835Z,64.62
2023-02-08T01:26:38.184Z,64.58
2023-02-08T01:29:25.915Z,64.57
2023-02-08T01:32:11.778Z,63.60
2023-02-08T01:34:57.190Z,63.89
2023-02-08T01:37:42.948Z,63.21
2023-02-08T01:40:29.053Z,63.31
2023-02-08T01:43:32.223Z,64.08
2023-02-08T01:46:21.180Z,64.27
2023-02-08T01:49:29.867Z,64.37
2023-02-08T01:52:19.148Z,63.66
2023-02-08T01:55:25.687Z,63.96
2023-02-08T01:58:12.816Z,63.51
2023-02-08T02:01:02.545Z,62.22
2023-02-08T02:03:48.616Z,62.55
2023-02-08T02:06:39.460Z,63.52
2023-02-08T02:09:31.536Z,63.25
2023-02-08T02:12:18.932Z,63.06
2023-02-08T02:15:05.667Z,63.98
2023-02-08T02:17:51.114Z,63.76
2023-02-08T02:21:03.798Z,63.29
2023-02-08T02:24:04.065Z,62.99
2023-02-08T02:27:04.868Z,63.43
2023-02-08T02:30:00.744Z,64.35
2023-02-08T02:33:10.618Z,64.87
2023-02-08T02:36:16.111Z,63.95
2023-02-08T02:39:25.165Z,64.16
2023-02-08T02:42:52.653Z,64.22
2023-02-08T02:45:56.905Z,64.13
2023-02-08T02:48:50.405Z,63.99
2023-02-08T02:52:02.253Z,64.46
2023-02-08T02:54:53.059Z,64.70
2023-02-08T02:57:41.761Z,64.04
2023-02-08T03:00:31.133Z,64.00
2023-02-08T03:03:23.109Z,63.42
2023-02-08T03:06:14.387Z,63.61
2023-02-08T03:09:26.652Z,63.43
2023-02-08T03:12:31.457Z,64.44
2023-02-08T03:15:41.777Z,63.86
2023-02-08T03:19:17.752Z,64.45
2023-02-08T03:22:13.389Z,64.68
2023-02-08T03:25:24.204Z,64.37
2023-02-08T03:28:31.460Z,64.76
2023-02-08T03:31:40.022Z,64.19
2023-02-08T03:34:53.188Z,64.38
2023-02-08T03:37:47.178Z,63.85
2023-02-08T03:40:37.894Z,63.93
2023-02-08T03:43:33.657Z,64.33
2023-02-08T03:46:27.591Z,64.49
2023-02-08T03:49:23.785Z,63.70
2023-02-08T03:52:11.169Z,64.57
2023-02-08T03:55:12.768Z,64.14
2023-02-08T03:58:40.683Z,64.38
2023-02-08T04:01:51.577Z,64.98
2023-02-08T04:04:42.378Z,64.12
2023-02-08T04:07:27.923Z,64.26
2023-02-08T04:10:13.714Z,64.30
2023-02-08T04:12:59.716Z,63.69
2023-02-08T04:15:45.017Z,63.35
2023-02-08T04:18:31.416Z,63.53
2023-02-08T04:21:17.258Z,63.01
2023-02-08T04:24:03.530Z,62.84
2023-02-08T04:26:50.092Z,62.95
2023-02-08T04:29:35.644Z,62.22
2023-02-08T04:32:21.332Z,62.33
2023-02-08T04:35:06.833Z,62.67
2023-02-08T04:37:52.529Z,62.15
2023-02-08T04:40:38.337Z,63.21
2023-02-08T04:43:23.940Z,63.31
2023-02-08T04:46:09.339Z,62.88
2023-02-08T04:48:54.962Z,62.52
2023-02-08T04:51:43.213Z,62.43
2023-02-08T04:54:28.934Z,62.33
2023-02-08T04:57:15.351Z,62.03
2023-02-08T05:00:00.820Z,62.32
2023-02-08T05:02:46.383Z,62.30
2023-02-08T05:05:32.949Z,62.19
2023-02-08T05:08:18.511Z,62.32
2023-02-08T05:11:10.819Z,62.24
2023-02-08T05:14:00.904Z,62.15
2023-02-08T05:16:46.509Z,61.84
2023-02-08T05:19:32.354Z,61.42
2023-02-08T05:22:18.070Z,62.00
2023-02-08T05:25:03.894Z,61.26
2023-02-08T05:27:50.264Z,60.72
2023-02-08T05:30:38.610Z,60.56
2023-02-08T05:33:24.335Z,60.53
2023-02-08T05:36:10.484Z,60.62
2023-02-08T05:38:56.180Z,61.22
2023-02-08T05:41:41.759Z,60.54
2023-02-08T05:44:27.217Z,59.53
2023-02-08T05:47:13.135Z,58.70
2023-02-08T05:49:59.229Z,60.20
2023-02-08T05:52:45.362Z,60.61
2023-02-08T05:55:30.943Z,60.63
2023-02-08T05:58:17.114Z,60.81
2023-02-08T06:01:11.102Z,60.41
2023-02-08T06:03:59.769Z,59.84
2023-02-08T06:06:45.685Z,60.12
2023-02-08T06:09:31.478Z,59.67
2023-02-08T06:12:17.583Z,58.65
2023-02-08T06:15:03.158Z,58.79
2023-02-08T06:17:48.600Z,58.80
2023-02-08T06:20:34.066Z,58.78
2023-02-08T06:23:19.388Z,58.83
2023-02-08T06:26:05.690Z,59.83
2023-02-08T06:28:52.395Z,59.56
2023-02-08T06:31:38.047Z,59.46
2023-02-08T06:34:24.024Z,60.17
2023-02-08T06:37:09.700Z,60.58
2023-02-08T06:39:55.162Z,61.58
2023-02-08T06:42:40.659Z,62.49
2023-02-08T06:45:27.464Z,62.68
2023-02-08T06:48:13.740Z,63.04
2023-02-08T06:51:01.136Z,63.04
2023-02-08T06:53:46.818Z,62.78
2023-02-08T06:56:32.487Z,62.82
2023-02-08T06:59:18.082Z,61.43
2023-02-08T07:02:03.688Z,60.96
2023-02-08T07:04:53.734Z,59.46
2023-02-08T07:07:39.931Z,59.08
2023-02-08T07:10:25.943Z,58.13
2023-02-08T07:13:11.983Z,57.33
2023-02-08T07:15:58.149Z,57.71
2023-02-08T07:18:44.699Z,57.50
2023-02-08T07:21:30.253Z,56.50
2023-02-08T07:24:15.753Z,55.95
2023-02-08T07:27:01.797Z,56.29
2023-02-08T07:29:47.273Z,55.83
2023-02-08T07:32:34.690Z,56.79
2023-02-08T07:35:20.129Z,56.88
2023-02-08T07:38:05.478Z,55.60
2023-02-08T07:40:51.002Z,55.71
2023-02-08T07:43:37.641Z,54.52
2023-02-08T07:46:39.520Z,54.91
2023-02-08T07:49:27.131Z,52.91
2023-02-08T07:52:12.693Z,53.88
2023-02-08T07:54:58.972Z,54.37
2023-02-08T07:57:49.233Z,54.18
2023-02-08T08:00:34.744Z,55.42
2023-02-08T08:03:20.593Z,55.51
2023-02-08T08:06:06.997Z,55.55
2023-02-08T08:08:52.845Z,55.51
2023-02-08T08:11:38.455Z,54.59
2023-02-08T08:14:24.061Z,55.44
2023-02-08T08:17:12.301Z,54.71
2023-02-08T08:19:58.207Z,54.75
2023-02-08T08:22:43.574Z,54.54
2023-02-08T08:25:29.280Z,54.06
2023-02-08T08:28:15.620Z,54.78
2023-02-08T08:31:02.179Z,54.63
2023-02-08T08:33:48.526Z,54.95
2023-02-08T08:36:36.925Z,54.32
2023-02-08T08:39:23.904Z,54.23
2023-02-08T08:42:09.298Z,53.72
2023-02-08T08:44:56.137Z,53.95
2023-02-08T08:47:42.864Z,53.17
2023-02-08T08:50:28.720Z,53.42
2023-02-08T08:53:14.865Z,53.23
2023-02-08T08:56:01.348Z,52.54
2023-02-08T08:58:47.072Z,52.57
2023-02-08T09:01:34.415Z,51.88
2023-02-08T09:04:22.872Z,52.77
2023-02-08T09:07:10.680Z,52.11
2023-02-08T09:09:56.521Z,52.93
2023-02-08T09:12:42.222Z,53.04
2023-02-08T09:15:28.204Z,52.73
2023-02-08T09:18:14.212Z,53.04
2023-02-08T09:21:15.745Z,52.38
2023-02-08T09:24:02.789Z,53.07
2023-02-08T09:26:49.913Z,53.78
2023-02-08T09:29:39.640Z,53.17
2023-02-08T09:32:30.880Z,53.49
2023-02-08T09:35:16.816Z,52.73
2023-02-08T09:38:04.621Z,52.66
2023-02-08T09:41:22.675Z,53.05
2023-02-08T09:44:30.512Z,52.97
2023-02-08T09:47:23.272Z,52.36
2023-02-08T09:50:21.189Z,52.49
2023-02-08T09:53:21.542Z,51.95
2023-02-08T09:56:12.761Z,53.33
2023-02-08T09:59:00.794Z,53.11
2023-02-08T10:01:49.484Z,52.01
2023-02-08T10:05:07.883Z,51.59
2023-02-08T10:07:54.838Z,52.16
2023-02-08T10:11:06.792Z,52.48
2023-02-08T10:14:00.080Z,51.97
2023-02-08T10:16:59.506Z,51.71
2023-02-08T10:19:51.162Z,51.53
2023-02-08T10:22:57.026Z,50.69
2023-02-08T10:26:14.486Z,51.59
2023-02-08T10:29:30.922Z,51.39
2023-02-08T10:32:37.346Z,50.59
2023-02-08T10:35:37.358Z,51.06
2023-02-08T10:38:45.271Z,50.70
2023-02-08T10:41:37.344Z,50.49
2023-02-08T10:44:48.113Z,50.78
2023-02-08T10:47:46.320Z,50.25
2023-02-08T10:50:40.243Z,50.01
2023-02-08T10:53:25.684Z,50.19
2023-02-08T10:56:30.850Z,49.38
2023-02-08T10:59:24.313Z,49.79
2023-02-08T11:02:22.738Z,50.43
2023-02-08T11:05:21.102Z,50.86
2023-02-08T11:08:13.793Z,50.10
2023-02-08T11:11:04.268Z,50.75
2023-02-08T11:14:07.425Z,50.80
2023-02-08T11:16:56.930Z,51.21
2023-02-08T11:19:46.381Z,51.27
2023-02-08T11:22:38.295Z,50.97
2023-02-08T11:25:37.970Z,52.01
2023-02-08T11:28:28.460Z,51.99
2023-02-08T11:31:21.143Z,51.94
2023-02-08T11:34:11.714Z,51.42
2023-02-08T11:37:14.189Z,51.02
2023-02-08T11:40:03.845Z,50.75
2023-02-08T11:42:52.032Z,51.21
2023-02-08T11:45:37.821Z,52.26
2023-02-08T11:48:38.422Z,51.86
2023-02-08T11:51:30.593Z,50.97
2023-02-08T11:54:42.539Z,51.95
2023-02-08T11:57:28.358Z,51.77
2023-02-08T12:00:23.497Z,51.42
2023-02-08T12:03:18.507Z,52.17
2023-02-08T12:06:55.088Z,52.12
2023-02-08T12:10:08.179Z,52.38
2023-02-08T12:13:21.865Z,51.84
2023-02-08T12:16:26.076Z,51.09
2023-02-08T12:19:20.687Z,51.26
2023-02-08T12:22:14.034Z,51.32
2023-02-08T12:25:24.632Z,50.75
2023-02-08T12:28:20.095Z,50.91
2023-02-08T12:31:38.617Z,51.12
2023-02-08T12:34:42.635Z,50.98
2023-02-08T12:38:04.356Z,50.42
2023-02-08T12:41:19.555Z,51.07
2023-02-08T12:44:23.843Z,50.60
2023-02-08T12:47:16.838Z,51.23
2023-02-08T12:50:02.354Z,51.34
2023-02-08T12:52:57.379Z,50.34
2023-02-08T12:55:44.577Z,50.11
2023-02-08T12:58:38.752Z,50.11
2023-02-08T13:01:44.861Z,50.48
2023-02-08T13:04:38.693Z,50.62
2023-02-08T13:07:29.698Z,49.16
2023-02-08T13:10:34.542Z,49.30
2023-02-08T13:13:25.082Z,48.98
2023-02-08T13:16:18.087Z,49.55
2023-02-08T13:19:23.790Z,49.35
2023-02-08T13:22:12.827Z,49.64
2023-02-08T13:25:07.113Z,49.11
2023-02-08T13:27:54.118Z,50.05
2023-02-08T13:30:40.968Z,50.39
2023-02-08T13:33:55.779Z,49.35
2023-02-08T13:36:58.159Z,48.71
2023-02-08T13:39:46.614Z,49.43
2023-02-08T13:42:43.127Z,48.85
2023-02-08T13:45:42.064Z,49.42
2023-02-08T13:48:28.181Z,49.14
2023-02-08T13:51:33.155Z,49.72
2023-02-08T13:54:19.210Z,49.27
2023-02-08T13:57:48.406Z,49.69
2023-02-08T14:00:36.813Z,50.58
2023-02-08T14:03:27.996Z,51.09
2023-02-08T14:06:23.873Z,51.07
2023-02-08T14:09:28.816Z,50.62
2023-02-08T14:12:26.746Z,50.47
2023-02-08T14:15:15.769Z,50.59
2023-02-08T14:18:02.490Z,49.49
2023-02-08T14:21:02.045Z,49.63
2023-02-08T14:24:00.738Z,49.57
2023-02-08T14:26:46.460Z,49.39
2023-02-08T14:29:33.062Z,50.80
2023-02-08T14:32:30.581Z,50.35
2023-02-08T14:35:18.353Z,50.20
2023-02-08T14:38:19.280Z,50.92
2023-02-08T14:41:05.324Z,50.38
2023-02-08T14:43:50.943Z,50.38
2023-02-08T14:46:40.873Z,50.49
2023-02-08T14:49:27.731Z,49.91
2023-02-08T14:52:22.029Z,49.82
2023-02-08T14:55:19.938Z,50.87
2023-02-08T14:58:09.125Z,51.53
2023-02-08T15:00:56.456Z,50.83
2023-02-08T15:03:43.482Z,50.88
2023-02-08T15:06:37.833Z,50.45
2023-02-08T15:09:38.110Z,50.39
2023-02-08T15:12:35.803Z,51.67
2023-02-08T15:15:21.532Z,51.28
2023-02-08T15:18:18.982Z,51.34
2023-02-08T15:21:08.527Z,52.21
2023-02-08T15:24:15.270Z,51.62
2023-02-08T15:27:00.993Z,50.99
2023-02-08T15:29:48.679Z,51.25
2023-02-08T15:32:35.018Z,51.17
2023-02-08T15:35:22.939Z,51.59
2023-02-08T15:38:19.163Z,51.37
2023-02-08T15:41:09.580Z,51.98
2023-02-08T15:44:22.825Z,51.54
2023-02-08T15:47:17.406Z,51.92
2023-02-08T15:50:06.722Z,51.93
2023-02-08T15:52:58.789Z,52.38
2023-02-08T15:55:50.130Z,51.95
2023-02-08T15:58:42.043Z,52.76
2023-02-08T16:01:31.934Z,53.05
2023-02-08T16:04:18.042Z,52.47
2023-02-08T16:07:03.748Z,52.00
2023-02-08T16:09:49.609Z,52.04
2023-02-08T16:12:38.315Z,52.53
2023-02-08T16:15:40.067Z,52.94
2023-02-08T16:18:47.080Z,53.24
2023-02-08T16:21:39.067Z,53.44
2023-02-08T16:24:27.983Z,52.84
2023-02-08T16:27:33.845Z,53.86
2023-02-08T16:30:24.146Z,52.54
2023-02-08T16:33:10.042Z,53.16
2023-02-08T16:36:07.320Z,53.76
2023-02-08T16:39:18.648Z,53.57
2023-02-08T16:42:31.883Z,53.65
2023-02-08T16:45:24.850Z,54.08
2023-02-08T16:48:36.124Z,53.60
2023-02-08T16:51:34.803Z,52.92
2023-02-08T16:54:26.508Z,52.61
2023-02-08T16:57:17.695Z,53.94
2023-02-08T17:00:12.804Z,55.24
2023-02-08T17:03:09.228Z,55.95
2023-02-08T17:05:57.788Z,55.48
2023-02-08T17:08:43.755Z,54.72
2023-02-08T17:11:29.864Z,54.11
2023-02-08T17:14:15.796Z,54.17
2023-02-08T17:17:01.540Z,54.53
2023-02-08T17:19:56.111Z,55.11
2023-02-08T17:23:15.905Z,55.40
2023-02-08T17:26:01.795Z,55.65
2023-02-08T17:28:50.185Z,55.38
2023-02-08T17:31:36.890Z,55.50
2023-02-08T17:34:24.053Z,54.83
2023-02-08T17:37:13.486Z,55.37
2023-02-08T17:40:05.847Z,54.55
2023-02-08T17:42:55.959Z,54.54
2023-02-08T17:45:44.753Z,54.94
2023-02-08T17:48:31.854Z,55.39
2023-02-08T17:51:26.684Z,55.35
2023-02-08T17:54:16.699Z,55.18
2023-02-08T17:57:05.193Z,55.78
2023-02-08T18:00:10.485Z,55.09
2023-02-08T18:03:26.980Z,55.06
2023-02-08T18:06:21.387Z,55.35
2023-02-08T18:09:11.741Z,55.25
2023-02-08T18:12:02.195Z,55.36
2023-02-08T18:14:49.606Z,55.48
2023-02-08T18:17:37.198Z,54.85
2023-02-08T18:20:26.635Z,54.93
2023-02-08T18:23:14.718Z,54.99
2023-02-08T18:26:09.660Z,55.32
2023-02-08T18:28:57.972Z,55.73
2023-02-08T18:31:44.952Z,56.02
2023-02-08T18:34:53.418Z,57.38
2023-02-08T18:37:51.244Z,57.31
2023-02-08T18:40:48.910Z,57.20
2023-02-08T18:43:37.436Z,57.94
2023-02-08T18:46:29.098Z,57.88
2023-02-08T18:49:17.719Z,58.38
2023-02-08T18:52:33.411Z,57.36
2023-02-08T18:55:21.189Z,57.77
